메인 페이지
METAR-TAF:

METAR-TAF

공항 :

클린턴 / Burns Flat, 오클라호마, 미국

위도: 35-21-24N, 경도: 099-12-13W, 고도: 585m

현재 날씨관측

예보는 46분 전, 18:53시(UTC)에 발표되었습니다.
남남동21kt
온도 24°C
습도 22%
기압 1012 hPa
시정: 16.1km
맑음

METAR: KCSM 191853Z 16021KT 10SM CLR 24/01 A2987 RMK AO2 PK WND 17026/1852 SLP104 T02390011

시각: 13:39 (19:39 UTC)

예보

예보는 2 시간 17분 전, 17:22시(UTC)에 발표되었습니다.
예보 대상 시간: 19일 18시부터 20일 18시까지 (UTC)
남남동17kt, 순간 최대 풍속 28kt
시정: 10km
고도 25000ft 상공 구름 보통
20일 1600시부터 (UTC)
22kt, 순간 최대 풍속 29kt
시정: 10km
고도 1800ft 상공 구름 많음

TAF: KCSM 191722Z 1918/2018 16017G28KT P6SM SCT250 FM201600 18022G29KT P6SM BKN018

4,000개 이상의 공항 관측 자료 및 예보 (METAR 및 TAF 보고).

지도상에서 검색 가능한 기상관측소가 노란 점과 빨간 점으로 표시되어 있습니다.

기상관측소 명을 보려면 표시 위로 마우스를 이동하세요.

날씨 관측과 예보를 보려면 클릭하세요.

지도 변경 : 확대하려면 엑스 표시가 있는 녹색 버튼, 축소하려면 빼기 표시가 있는 녹색 버튼, 다음 페이지의 지도를 보려면 녹색 화살표를 클릭하세요.


METAR-TAF: